createdAt,value
2022-11-15T00:04:46.093Z,27.6
2022-11-15T00:10:35.609Z,27.6
2022-11-15T00:15:42.104Z,27.4
2022-11-15T00:21:20.598Z,27.4
2022-11-15T00:26:58.118Z,27.2
2022-11-15T00:32:21.959Z,27
2022-11-15T00:38:00.351Z,26.9
2022-11-15T00:43:39.669Z,26.8
2022-11-15T00:48:45.775Z,26.7
2022-11-15T00:54:24.540Z,26.5
2022-11-15T01:00:01.732Z,26.4
2022-11-15T01:05:25.971Z,26.3
2022-11-15T01:11:03.552Z,26.2
2022-11-15T01:16:40.931Z,26.1
2022-11-15T01:22:18.632Z,25.9
2022-11-15T01:27:56.913Z,25.8
2022-11-15T01:33:34.413Z,25.7
2022-11-15T01:39:11.413Z,25.3
2022-11-15T01:44:48.922Z,24.6
2022-11-15T01:50:10.565Z,24.2
2022-11-15T01:55:48.638Z,23.7
2022-11-15T02:01:26.578Z,23.3
2022-11-15T02:06:48.841Z,22.9
2022-11-15T02:11:39.791Z,22.6
2022-11-15T02:17:16.084Z,22.3
2022-11-15T02:22:53.081Z,21.8
2022-11-15T02:28:00.212Z,24.5
2022-11-15T02:33:36.900Z,24.5
2022-11-15T02:39:13.910Z,24.1
2022-11-15T02:44:35.837Z,23.4
2022-11-15T02:50:12.732Z,23
2022-11-15T02:55:04.102Z,22.6
2022-11-15T03:00:40.740Z,22.4
2022-11-15T03:06:03.682Z,22.1
2022-11-15T03:11:25.803Z,21.9
2022-11-15T03:16:31.664Z,21.7
2022-11-15T03:21:53.113Z,21.6
2022-11-15T03:27:14.238Z,21.4
2022-11-15T03:32:39.342Z,21.3
2022-11-15T03:43:43.778Z,21.1
2022-11-15T03:49:20.744Z,21
2022-11-15T03:54:57.908Z,20.9
2022-11-15T04:00:04.105Z,20.9
2022-11-15T04:05:26.895Z,20.8
2022-11-15T04:10:50.282Z,20.8
2022-11-15T04:15:55.648Z,20.7
2022-11-15T04:21:33.197Z,20.6
2022-11-15T04:27:16.882Z,20.6
2022-11-15T04:32:38.479Z,20.5
2022-11-15T04:38:22.118Z,20.4
2022-11-15T04:43:59.067Z,20.4
2022-11-15T04:49:35.361Z,20.4
2022-11-15T04:54:57.912Z,20.3
2022-11-15T05:00:25.625Z,20.3
2022-11-15T05:06:08.579Z,20.2
2022-11-15T05:11:31.243Z,20.2
2022-11-15T05:16:53.763Z,20.1
2022-11-15T05:22:32.752Z,20.1
2022-11-15T05:27:55.618Z,20.1
2022-11-15T05:33:32.960Z,20.1
2022-11-15T05:38:55.039Z,20.1
2022-11-15T05:44:16.692Z,20.1
2022-11-15T05:49:54.189Z,20.1
2022-11-15T05:55:19.896Z,19.9
2022-11-15T06:00:42.234Z,19.9
2022-11-15T06:06:05.640Z,19.9
2022-11-15T06:11:43.141Z,19.9
2022-11-15T06:17:27.513Z,19.9
2022-11-15T06:22:48.395Z,19.8
2022-11-15T06:28:25.518Z,19.8
2022-11-15T06:33:47.986Z,19.6
2022-11-15T06:39:24.568Z,19.5
2022-11-15T06:45:01.896Z,19.4
2022-11-15T06:50:39.339Z,19.3
2022-11-15T06:56:17.243Z,19.3
2022-11-15T07:01:54.684Z,19.1
2022-11-15T07:07:32.620Z,19.2
2022-11-15T07:13:13.861Z,19.2
2022-11-15T07:18:37.043Z,19.2
2022-11-15T07:23:59.633Z,19.2
2022-11-15T07:29:23.946Z,19.2
2022-11-15T07:35:01.041Z,19.2
2022-11-15T07:40:38.497Z,19.1
2022-11-15T07:46:16.557Z,19.2
2022-11-15T07:51:49.001Z,19.2
2022-11-15T07:57:11.906Z,19.2
2022-11-15T08:02:51.166Z,19.1
2022-11-15T08:08:29.297Z,19.1
2022-11-15T08:14:07.860Z,19.1
2022-11-15T08:19:50.137Z,19.1
2022-11-15T08:25:28.792Z,19.1
2022-11-15T08:31:06.730Z,19.1
2022-11-15T08:36:59.489Z,19.1
2022-11-15T08:42:37.403Z,19.1
2022-11-15T08:48:16.172Z,19.1
2022-11-15T08:53:54.131Z,19.1
2022-11-15T08:59:33.945Z,19.1
2022-11-15T09:05:12.594Z,19.1
2022-11-15T09:11:19.286Z,19.1
2022-11-15T09:17:02.253Z,19.1
2022-11-15T09:22:47.977Z,19.1
2022-11-15T09:29:01.362Z,19.1
2022-11-15T09:34:42.085Z,19.1
2022-11-15T09:40:26.236Z,19.1
2022-11-15T09:46:05.753Z,19.1
2022-11-15T09:51:42.972Z,19
2022-11-15T09:58:28.670Z,19
2022-11-15T10:04:27.268Z,19.1
2022-11-15T10:09:55.399Z,19
2022-11-15T10:16:07.613Z,19
2022-11-15T10:21:46.258Z,19
2022-11-15T10:27:13.097Z,19
2022-11-15T10:32:53.917Z,19
2022-11-15T10:38:31.253Z,19
2022-11-15T10:45:49.536Z,18.9
2022-11-15T10:52:05.752Z,18.9
2022-11-15T10:57:48.360Z,18.9
2022-11-15T11:03:32.220Z,18.9
2022-11-15T11:09:16.413Z,18.9
2022-11-15T11:15:29.541Z,18.9
2022-11-15T11:21:07.344Z,18.9
2022-11-15T11:26:34.949Z,19
2022-11-15T11:32:13.025Z,18.9
2022-11-15T11:37:54.521Z,18.9
2022-11-15T11:43:17.189Z,18.9
2022-11-15T11:48:55.108Z,18.9
2022-11-15T11:54:33.995Z,18.9
2022-11-15T12:00:12.241Z,18.9
2022-11-15T12:05:55.388Z,18.9
2022-11-15T12:11:38.962Z,18.9
2022-11-15T12:17:17.319Z,18.9
2022-11-15T12:22:55.004Z,18.9
2022-11-15T12:28:33.390Z,18.9
2022-11-15T12:34:24.231Z,18.9
2022-11-15T12:40:03.896Z,18.9
2022-11-15T12:45:11.262Z,18.9
2022-11-15T12:50:18.126Z,18.9
2022-11-15T12:55:40.183Z,18.9
2022-11-15T13:01:18.824Z,19
2022-11-15T13:06:56.474Z,19
2022-11-15T13:12:37.652Z,19.1
2022-11-15T13:18:14.592Z,19
2022-11-15T13:23:52.902Z,19
2022-11-15T13:29:15.130Z,19
2022-11-15T13:35:09.723Z,19
2022-11-15T13:40:48.551Z,19.1
2022-11-15T13:46:26.247Z,19.1
2022-11-15T13:52:09.126Z,19.1
2022-11-15T13:57:47.539Z,19.1
2022-11-15T14:03:25.223Z,19.1
2022-11-15T14:09:08.670Z,19.1
2022-11-15T14:14:46.307Z,19.1
2022-11-15T14:20:09.098Z,19.1
2022-11-15T14:25:30.962Z,19.1
2022-11-15T14:30:56.188Z,19.1
2022-11-15T14:36:17.635Z,19.1
2022-11-15T14:41:55.906Z,19.1
2022-11-15T14:47:02.384Z,21.2
2022-11-15T14:52:30.585Z,24.3
2022-11-15T14:57:53.482Z,25.9
2022-11-15T15:03:21.864Z,26.9
2022-11-15T15:08:34.514Z,27.6
2022-11-15T15:14:36.579Z,28.1
2022-11-15T15:20:00.821Z,28.4
2022-11-15T15:25:31.047Z,28.7
2022-11-15T15:30:38.131Z,29
2022-11-15T15:36:00.132Z,29.3
2022-11-15T15:41:24.804Z,29.3
2022-11-15T15:46:47.394Z,29.3
2022-11-15T15:52:17.892Z,28.9
2022-11-15T15:57:12.522Z,29.4
2022-11-15T16:02:19.616Z,29.8
2022-11-15T16:07:41.643Z,30.1
2022-11-15T16:13:18.366Z,30.3
2022-11-15T16:18:41.185Z,30.5
2022-11-15T16:24:03.551Z,30.7
2022-11-15T16:29:26.393Z,30.9
2022-11-15T16:34:57.011Z,31.1
2022-11-15T16:40:24.169Z,31
2022-11-15T16:45:30.870Z,31.2
2022-11-15T16:50:57.812Z,31.2
2022-11-15T16:56:19.911Z,31.2
2022-11-15T17:01:42.466Z,31.2
2022-11-15T17:06:53.739Z,31.2
2022-11-15T17:12:01.001Z,31.3
2022-11-15T17:17:22.591Z,31.3
2022-11-15T17:22:44.966Z,31.6
2022-11-15T17:28:27.425Z,31.8
2022-11-15T17:33:18.980Z,31.9
2022-11-15T17:38:41.235Z,31.9
2022-11-15T17:44:19.159Z,32.1
2022-11-15T17:49:41.789Z,32.1
2022-11-15T17:55:09.918Z,32
2022-11-15T18:00:54.751Z,32.1
2022-11-15T18:06:18.855Z,32.3
2022-11-15T18:11:56.938Z,32.4
2022-11-15T18:17:19.198Z,32.6
2022-11-15T18:23:01.764Z,32.6
2022-11-15T18:28:40.973Z,32.6
2022-11-15T18:34:04.524Z,32.6
2022-11-15T18:39:27.507Z,32.7
2022-11-15T18:45:10.355Z,32.8
2022-11-15T18:50:32.944Z,32.9
2022-11-15T18:55:55.709Z,32.8
2022-11-15T19:01:33.397Z,32.8
2022-11-15T19:07:15.676Z,32.6
2022-11-15T19:12:58.606Z,32.6
2022-11-15T19:18:35.955Z,32.8
2022-11-15T19:24:17.580Z,32.9
2022-11-15T19:29:55.874Z,32.8
2022-11-15T19:35:38.961Z,32.8
2022-11-15T19:41:21.136Z,32.8
2022-11-15T19:46:50.184Z,32.7
2022-11-15T19:52:28.291Z,32.5
2022-11-15T19:57:53.643Z,32.6
2022-11-15T20:03:31.841Z,32.9
2022-11-15T20:08:56.020Z,33
2022-11-15T20:14:17.849Z,33
2022-11-15T20:19:59.062Z,32.9
2022-11-15T20:25:36.925Z,32.6
2022-11-15T20:31:14.769Z,32.2
2022-11-15T20:36:52.871Z,32.1
2022-11-15T20:42:20.775Z,31.7
2022-11-15T20:48:03.269Z,31.4
2022-11-15T20:54:11.777Z,31.1
2022-11-15T20:59:34.433Z,30.8
2022-11-15T21:04:58.571Z,30.5
2022-11-15T21:10:41.929Z,30.1
2022-11-15T21:16:06.427Z,29.8
2022-11-15T21:21:49.789Z,29.4
2022-11-15T21:27:12.327Z,29.2
2022-11-15T21:32:56.274Z,28.9
2022-11-15T21:38:18.683Z,28.6
2022-11-15T21:43:57.373Z,28.4
2022-11-15T21:49:40.357Z,28.2
2022-11-15T21:59:54.590Z,27.2
2022-11-15T22:05:17.576Z,26.8
2022-11-15T22:11:00.190Z,26.6
2022-11-15T22:16:24.036Z,26.1
2022-11-15T22:22:17.628Z,26.2
2022-11-15T22:27:45.509Z,25.7
2022-11-15T22:32:35.808Z,25.8
2022-11-15T22:38:44.548Z,25.4
2022-11-15T22:44:21.297Z,25.5
2022-11-15T22:49:59.387Z,25.1
2022-11-15T22:55:37.848Z,25.1
2022-11-15T23:00:49.353Z,25
2022-11-15T23:06:30.931Z,24.9
2022-11-15T23:12:08.853Z,24.9
2022-11-15T23:17:47.041Z,25.9
2022-11-15T23:23:48.555Z,27.2
2022-11-15T23:29:26.818Z,27.2
2022-11-15T23:35:11.315Z,26.3
2022-11-15T23:40:48.941Z,25.9
2022-11-15T23:46:33.117Z,25.4
2022-11-15T23:52:11.152Z,25.1
2022-11-15T23:57:47.019Z,24.9
